Time;durP1;ratioP1;P1;durP2;ratioP2;P2;SDS_P1;SDS_P2;PMS_P1;PMS_P2;Temp;Humidity;BMP_temperature;BMP_pressure;BME280_temperature;BME280_humidity;BME280_pressure;Samples;Min_cycle;Max_cycle;Signal;HPM_P1;HPM_P2
2023/07/27 00:00:02;;;;;;;0.10;0.10;;;;;;;;;;5121011;28;20474;-60
2023/07/27 00:02:28;;;;;;;0.10;0.10;;;;;;;;;;5110529;28;20047;-61
2023/07/27 00:04:54;;;;;;;0.20;0.20;;;;;;;;;;5113028;28;20047;-61
2023/07/27 00:07:19;;;;;;;0.10;0.10;;;;;;;;;;5110559;28;20075;-61
2023/07/27 00:09:45;;;;;;;0.10;0.10;;;;;;;;;;5109593;28;20093;-60
2023/07/27 00:12:10;;;;;;;0.10;0.10;;;;;;;;;;5109400;28;20101;-61
2023/07/27 00:14:36;;;;;;;0.10;0.10;;;;;;;;;;5110598;28;20044;-61
2023/07/27 00:17:01;;;;;;;0.10;0.10;;;;;;;;;;5109857;28;20134;-60
2023/07/27 00:19:27;;;;;;;0.10;0.10;;;;;;;;;;5110768;28;20044;-60
2023/07/27 00:21:52;;;;;;;0.10;0.10;;;;;;;;;;5126110;28;20078;-61
2023/07/27 00:24:18;;;;;;;0.10;0.10;;;;;;;;;;5128725;28;20080;-61
2023/07/27 00:26:43;;;;;;;0.10;0.10;;;;;;;;;;5123882;28;20040;-61
2023/07/27 00:29:09;;;;;;;0.10;0.10;;;;;;;;;;5112617;28;20047;-60
2023/07/27 00:31:34;;;;;;;0.10;0.10;;;;;;;;;;5098013;28;20055;-60
2023/07/27 00:34:00;;;;;;;0.15;0.15;;;;;;;;;;5107634;28;20070;-61
2023/07/27 00:36:25;;;;;;;0.10;0.10;;;;;;;;;;5128896;28;20051;-61
2023/07/27 00:38:51;;;;;;;0.10;0.10;;;;;;;;;;5130125;28;20468;-60
2023/07/27 00:41:17;;;;;;;0.10;0.10;;;;;;;;;;5116466;28;20051;-60
2023/07/27 00:43:42;;;;;;;0.10;0.10;;;;;;;;;;5113497;28;20051;-61
2023/07/27 00:46:08;;;;;;;0.20;0.20;;;;;;;;;;5113776;28;20513;-61
2023/07/27 00:48:34;;;;;;;0.10;0.10;;;;;;;;;;5113942;28;20134;-60
2023/07/27 00:50:59;;;;;;;0.10;0.10;;;;;;;;;;5113331;28;20063;-61
2023/07/27 00:53:25;;;;;;;0.20;0.20;;;;;;;;;;5113399;28;20067;-61
2023/07/27 00:55:51;;;;;;;0.10;0.10;;;;;;;;;;5113424;28;20051;-61
2023/07/27 00:58:17;;;;;;;0.10;0.10;;;;;;;;;;5129966;28;20047;-60
2023/07/27 01:00:43;;;;;;;0.20;0.20;;;;;;;;;;5131317;28;20051;-61
2023/07/27 01:03:08;;;;;;;0.10;0.10;;;;;;;;;;5127949;28;20051;-60
2023/07/27 01:05:35;;;;;;;0.10;0.10;;;;;;;;;;5134004;28;20100;-60
2023/07/27 01:08:00;;;;;;;0.10;0.10;;;;;;;;;;5129592;28;20077;-60
2023/07/27 01:10:45;;;;;;;0.10;0.10;;;;;;;;;;5106737;28;20532;-61
2023/07/27 01:13:14;;;;;;;0.30;0.30;;;;;;;;;;5118510;28;20043;-59
2023/07/27 01:15:43;;;;;;;0.10;0.10;;;;;;;;;;5133544;28;20399;-60
2023/07/27 01:18:15;;;;;;;0.10;0.10;;;;;;;;;;5133920;28;20043;-60
2023/07/27 01:21:00;;;;;;;0.10;0.10;;;;;;;;;;5125351;28;20047;-60
2023/07/27 01:23:34;;;;;;;0.10;0.10;;;;;;;;;;5110499;28;20085;-61
2023/07/27 01:26:19;;;;;;;0.10;0.10;;;;;;;;;;5123976;28;20051;-60
2023/07/27 01:29:05;;;;;;;0.10;0.10;;;;;;;;;;5097966;28;20484;-60
2023/07/27 01:31:33;;;;;;;0.20;0.20;;;;;;;;;;5097610;28;20044;-60
2023/07/27 01:34:08;;;;;;;0.10;0.10;;;;;;;;;;5112957;28;20052;-61
2023/07/27 01:36:37;;;;;;;0.10;0.10;;;;;;;;;;5119748;28;20135;-60
2023/07/27 01:39:06;;;;;;;0.10;0.10;;;;;;;;;;5132168;28;20047;-60
2023/07/27 01:41:33;;;;;;;0.20;0.20;;;;;;;;;;5117583;28;20433;-61
2023/07/27 01:44:00;;;;;;;0.10;0.10;;;;;;;;;;5113090;28;20039;-61
2023/07/27 01:46:26;;;;;;;0.10;0.10;;;;;;;;;;5112709;28;20043;-61
2023/07/27 01:48:55;;;;;;;0.20;0.20;;;;;;;;;;5112957;28;20555;-60
2023/07/27 01:51:21;;;;;;;0.10;0.10;;;;;;;;;;5098950;28;20040;-61
2023/07/27 01:53:47;;;;;;;0.20;0.20;;;;;;;;;;5092283;28;20056;-59
2023/07/27 01:56:13;;;;;;;0.20;0.20;;;;;;;;;;5092186;28;20435;-60
2023/07/27 01:58:39;;;;;;;0.10;0.10;;;;;;;;;;5099353;28;20475;-60
2023/07/27 02:01:05;;;;;;;0.20;0.20;;;;;;;;;;5100771;28;20056;-61
2023/07/27 02:03:31;;;;;;;0.10;0.10;;;;;;;;;;5113791;28;20445;-61
2023/07/27 02:05:58;;;;;;;0.10;0.10;;;;;;;;;;5118717;28;20044;-60
2023/07/27 02:08:23;;;;;;;0.10;0.10;;;;;;;;;;5112425;28;20054;-61
2023/07/27 02:10:53;;;;;;;0.10;0.10;;;;;;;;;;5118312;28;20408;-61
2023/07/27 02:13:23;;;;;;;0.10;0.10;;;;;;;;;;5112678;28;20078;-61
2023/07/27 02:15:55;;;;;;;0.10;0.10;;;;;;;;;;5111872;28;20044;-61
2023/07/27 02:18:22;;;;;;;0.10;0.10;;;;;;;;;;5112544;28;20047;-60
2023/07/27 02:20:49;;;;;;;0.13;0.13;;;;;;;;;;5102715;28;20076;-60
2023/07/27 02:23:14;;;;;;;0.10;0.10;;;;;;;;;;5095803;28;20055;-60
2023/07/27 02:25:40;;;;;;;0.10;0.10;;;;;;;;;;5125270;28;20044;-61
2023/07/27 02:28:08;;;;;;;0.10;0.10;;;;;;;;;;5112269;28;20058;-60
2023/07/27 02:30:34;;;;;;;0.20;0.20;;;;;;;;;;5104735;28;20048;-60
2023/07/27 02:32:59;;;;;;;0.10;0.10;;;;;;;;;;5091549;28;20044;-61
2023/07/27 02:35:25;;;;;;;0.10;0.10;;;;;;;;;;5091766;28;20472;-60
2023/07/27 02:37:50;;;;;;;0.10;0.10;;;;;;;;;;5109577;28;20059;-61
2023/07/27 02:40:16;;;;;;;0.10;0.10;;;;;;;;;;5125278;28;20120;-61
2023/07/27 02:42:41;;;;;;;0.10;0.10;;;;;;;;;;5116524;28;20087;-60
2023/07/27 02:45:07;;;;;;;0.10;0.10;;;;;;;;;;5111977;28;20062;-61
2023/07/27 02:47:32;;;;;;;0.10;0.10;;;;;;;;;;5111931;28;20044;-60
2023/07/27 02:49:58;;;;;;;0.10;0.10;;;;;;;;;;5109067;28;20051;-60
2023/07/27 02:52:24;;;;;;;0.10;0.10;;;;;;;;;;5091745;28;20051;-60
2023/07/27 02:54:49;;;;;;;0.10;0.10;;;;;;;;;;5091305;28;20083;-60
2023/07/27 02:57:15;;;;;;;0.20;0.20;;;;;;;;;;5091113;28;20051;-60
2023/07/27 02:59:40;;;;;;;0.20;0.20;;;;;;;;;;5091460;28;20101;-60
2023/07/27 03:02:05;;;;;;;0.20;0.20;;;;;;;;;;5114750;28;20401;-60
2023/07/27 03:04:31;;;;;;;0.10;0.10;;;;;;;;;;5113226;28;20056;-60
2023/07/27 03:06:57;;;;;;;0.20;0.20;;;;;;;;;;5123885;28;20492;-61
2023/07/27 03:09:22;;;;;;;0.20;0.20;;;;;;;;;;5111765;28;20048;-61
2023/07/27 03:11:49;;;;;;;0.10;0.10;;;;;;;;;;5103010;28;20051;-61
2023/07/27 03:14:15;;;;;;;0.10;0.10;;;;;;;;;;5110532;28;20051;-61
2023/07/27 03:16:40;;;;;;;0.10;0.10;;;;;;;;;;5112234;28;20048;-60
2023/07/27 03:19:06;;;;;;;0.15;0.15;;;;;;;;;;5110960;28;20096;-60
2023/07/27 03:21:31;;;;;;;0.10;0.10;;;;;;;;;;5094836;28;20079;-60
2023/07/27 03:23:57;;;;;;;0.20;0.20;;;;;;;;;;5090084;28;20055;-61
2023/07/27 03:26:22;;;;;;;0.10;0.10;;;;;;;;;;5106623;28;20050;-60
2023/07/27 03:28:48;;;;;;;0.15;0.15;;;;;;;;;;5124592;28;20137;-60
2023/07/27 03:31:14;;;;;;;0.10;0.10;;;;;;;;;;5098514;28;20055;-61
2023/07/27 03:33:40;;;;;;;0.10;0.10;;;;;;;;;;5089544;28;20121;-61
2023/07/27 03:36:06;;;;;;;0.10;0.10;;;;;;;;;;5090038;28;20472;-60
2023/07/27 03:38:32;;;;;;;0.10;0.10;;;;;;;;;;5095651;28;20350;-60
2023/07/27 03:40:58;;;;;;;0.10;0.10;;;;;;;;;;5114476;28;20059;-61
2023/07/27 03:43:23;;;;;;;0.10;0.10;;;;;;;;;;5110365;28;20480;-61
2023/07/27 03:45:51;;;;;;;0.10;0.10;;;;;;;;;;5110285;28;20044;-61
2023/07/27 03:48:17;;;;;;;;;;;;;;;;;;5110387;28;20408;-60
2023/07/27 03:50:42;;;;;;;0.10;0.10;;;;;;;;;;5101642;28;20006;-61
2023/07/27 03:53:08;;;;;;;0.10;0.10;;;;;;;;;;5089807;28;20135;-60
2023/07/27 03:55:33;;;;;;;0.20;0.20;;;;;;;;;;5089949;28;20136;-60
2023/07/27 03:57:59;;;;;;;0.20;0.20;;;;;;;;;;5089673;28;20130;-60
2023/07/27 04:00:24;;;;;;;0.10;0.10;;;;;;;;;;5089458;28;20056;-61
2023/07/27 04:02:50;;;;;;;0.20;0.20;;;;;;;;;;5102254;28;20164;-61
2023/07/27 04:05:16;;;;;;;0.20;0.20;;;;;;;;;;5110208;28;20055;-60
2023/07/27 04:07:41;;;;;;;0.20;0.20;;;;;;;;;;5121558;28;20051;-61
2023/07/27 04:10:07;;;;;;;0.10;0.10;;;;;;;;;;5126586;28;20067;-61
2023/07/27 04:12:33;;;;;;;0.10;0.10;;;;;;;;;;5110224;28;20047;-61
2023/07/27 04:14:58;;;;;;;0.10;0.10;;;;;;;;;;5110494;28;20051;-60
2023/07/27 04:17:24;;;;;;;0.20;0.20;;;;;;;;;;5116187;28;20047;-60
2023/07/27 04:19:49;;;;;;;0.10;0.10;;;;;;;;;;5131935;28;20047;-60
2023/07/27 04:22:15;;;;;;;0.10;0.10;;;;;;;;;;5113890;28;20052;-61
2023/07/27 04:24:44;;;;;;;0.10;0.10;;;;;;;;;;5110618;28;20071;-60
2023/07/27 04:27:11;;;;;;;0.20;0.20;;;;;;;;;;5072843;27;1158924;-60
2023/07/27 04:29:37;;;;;;;0.10;0.10;;;;;;;;;;5134418;27;20039;-60
2023/07/27 04:32:04;;;;;;;0.20;0.20;;;;;;;;;;5146905;27;20365;-61
2023/07/27 04:34:30;;;;;;;0.10;0.10;;;;;;;;;;5156051;27;20475;-61
2023/07/27 04:36:56;;;;;;;0.10;0.10;;;;;;;;;;5155848;27;20042;-61
2023/07/27 04:39:22;;;;;;;0.10;0.10;;;;;;;;;;5155968;27;20511;-61
2023/07/27 04:41:49;;;;;;;0.10;0.10;;;;;;;;;;5139253;27;20478;-61
2023/07/27 04:44:15;;;;;;;0.10;0.10;;;;;;;;;;5134264;27;20039;-60
2023/07/27 04:46:41;;;;;;;0.10;0.10;;;;;;;;;;5135939;27;20047;-60
2023/07/27 04:49:07;;;;;;;0.10;0.10;;;;;;;;;;5135772;27;20130;-60
2023/07/27 04:51:34;;;;;;;0.10;0.10;;;;;;;;;;5119102;27;20075;-60
2023/07/27 04:54:01;;;;;;;0.10;0.10;;;;;;;;;;5114371;28;20449;-60
2023/07/27 04:56:27;;;;;;;0.10;0.10;;;;;;;;;;5114904;28;20047;-60
2023/07/27 04:58:53;;;;;;;0.10;0.10;;;;;;;;;;5114538;28;20052;-61
2023/07/27 05:01:19;;;;;;;0.10;0.10;;;;;;;;;;5114621;28;20556;-60
2023/07/27 05:03:46;;;;;;;0.10;0.10;;;;;;;;;;5119234;27;20047;-61
2023/07/27 05:06:12;;;;;;;0.10;0.10;;;;;;;;;;5155245;27;20050;-61
2023/07/27 05:08:38;;;;;;;0.20;0.20;;;;;;;;;;5154395;27;20053;-60
2023/07/27 05:11:06;;;;;;;0.10;0.10;;;;;;;;;;5135065;27;20115;-60
2023/07/27 05:13:33;;;;;;;0.10;0.10;;;;;;;;;;5135153;27;20127;-60
2023/07/27 05:15:59;;;;;;;0.10;0.10;;;;;;;;;;5134939;27;20050;-60
2023/07/27 05:18:26;;;;;;;0.10;0.10;;;;;;;;;;5134892;27;20047;-61
2023/07/27 05:20:52;;;;;;;0.10;0.10;;;;;;;;;;5124906;27;20112;-60
2023/07/27 05:23:18;;;;;;;0.10;0.10;;;;;;;;;;5114257;28;20100;-61
2023/07/27 05:25:45;;;;;;;0.10;0.10;;;;;;;;;;5125189;27;20107;-60
2023/07/27 05:28:11;;;;;;;0.10;0.10;;;;;;;;;;5133874;27;20047;-60
2023/07/27 05:30:37;;;;;;;0.13;0.13;;;;;;;;;;5142015;27;20123;-61
2023/07/27 05:33:03;;;;;;;0.10;0.10;;;;;;;;;;5139040;27;20580;-60
2023/07/27 05:35:30;;;;;;;0.10;0.10;;;;;;;;;;5134309;27;20376;-61
2023/07/27 05:37:56;;;;;;;0.15;0.15;;;;;;;;;;5134434;27;20075;-60
2023/07/27 05:40:22;;;;;;;0.10;0.10;;;;;;;;;;5127941;27;20097;-60
2023/07/27 05:42:48;;;;;;;0.10;0.10;;;;;;;;;;5131319;27;20066;-60
2023/07/27 05:45:15;;;;;;;0.10;0.10;;;;;;;;;;5137125;27;20456;-60
2023/07/27 05:47:41;;;;;;;0.20;0.20;;;;;;;;;;5137110;27;20074;-61
2023/07/27 05:50:08;;;;;;;0.10;0.10;;;;;;;;;;5150099;27;20502;-60
2023/07/27 05:52:34;;;;;;;0.20;0.20;;;;;;;;;;5134194;27;20047;-61
2023/07/27 05:55:00;;;;;;;0.10;0.10;;;;;;;;;;5133624;27;20043;-61
2023/07/27 05:57:27;;;;;;;0.10;0.10;;;;;;;;;;5132966;27;20544;-60
2023/07/27 05:59:53;;;;;;;0.20;0.20;;;;;;;;;;5133463;27;20277;-61
2023/07/27 06:02:32;;;;;;;0.10;0.10;;;;;;;;;;5133695;27;20145;-60
2023/07/27 06:04:58;;;;;;;0.10;0.10;;;;;;;;;;5134023;27;20167;-61
2023/07/27 06:07:26;;;;;;;0.10;0.10;;;;;;;;;;5137244;27;20487;-60
2023/07/27 06:09:52;;;;;;;0.10;0.10;;;;;;;;;;5135140;27;20046;-60
2023/07/27 06:12:18;;;;;;;0.20;0.20;;;;;;;;;;5152175;27;20046;-61
2023/07/27 06:14:44;;;;;;;0.10;0.10;;;;;;;;;;5154159;27;20434;-60
2023/07/27 06:17:11;;;;;;;0.10;0.10;;;;;;;;;;5149723;27;20078;-60
2023/07/27 06:19:37;;;;;;;0.10;0.10;;;;;;;;;;5154016;27;20100;-60
2023/07/27 06:22:03;;;;;;;0.20;0.20;;;;;;;;;;5133879;27;20059;-61
2023/07/27 06:24:30;;;;;;;0.10;0.10;;;;;;;;;;5134099;27;20054;-60
2023/07/27 06:26:56;;;;;;;0.20;0.20;;;;;;;;;;5153971;27;20039;-61
2023/07/27 06:29:22;;;;;;;0.20;0.20;;;;;;;;;;5153789;27;20099;-61
2023/07/27 06:31:49;;;;;;;0.10;0.10;;;;;;;;;;5149041;27;20099;-60
2023/07/27 06:34:15;;;;;;;0.10;0.10;;;;;;;;;;5146980;27;20137;-60
2023/07/27 06:36:41;;;;;;;0.20;0.20;;;;;;;;;;5132589;27;20047;-60
2023/07/27 06:39:08;;;;;;;0.20;0.20;;;;;;;;;;5132933;27;20048;-60
2023/07/27 06:41:35;;;;;;;0.10;0.10;;;;;;;;;;5115944;27;20557;-60
2023/07/27 06:44:01;;;;;;;0.10;0.10;;;;;;;;;;5119458;27;20096;-60
2023/07/27 06:46:27;;;;;;;0.20;0.20;;;;;;;;;;5150302;27;20047;-60
2023/07/27 06:48:54;;;;;;;0.20;0.20;;;;;;;;;;5153880;27;20488;-61
2023/07/27 06:51:22;;;;;;;0.20;0.20;;;;;;;;;;5147418;27;20542;-60
2023/07/27 06:53:48;;;;;;;0.10;0.10;;;;;;;;;;5153924;27;20076;-61
2023/07/27 06:56:17;;;;;;;0.20;0.20;;;;;;;;;;5153893;27;20050;-61
2023/07/27 06:58:43;;;;;;;0.10;0.10;;;;;;;;;;5153919;27;20106;-61
2023/07/27 07:01:10;;;;;;;0.10;0.10;;;;;;;;;;5140724;27;20123;-61
2023/07/27 07:03:36;;;;;;;0.20;0.20;;;;;;;;;;5132995;27;20057;-61
2023/07/27 07:06:02;;;;;;;0.20;0.20;;;;;;;;;;5132893;27;20467;-59
2023/07/27 07:08:29;;;;;;;0.20;0.20;;;;;;;;;;5140327;27;20043;-60
2023/07/27 07:10:55;;;;;;;0.20;0.20;;;;;;;;;;5142816;27;20050;-60
2023/07/27 07:13:21;;;;;;;0.20;0.20;;;;;;;;;;5136969;27;20103;-61
2023/07/27 07:15:49;;;;;;;0.10;0.10;;;;;;;;;;5153020;27;20042;-60
2023/07/27 07:18:15;;;;;;;0.10;0.10;;;;;;;;;;5152795;27;20482;-60
2023/07/27 07:20:42;;;;;;;0.10;0.10;;;;;;;;;;5122325;27;20091;-61
2023/07/27 07:23:08;;;;;;;0.10;0.10;;;;;;;;;;5126229;27;20051;-61
2023/07/27 07:25:35;;;;;;;0.20;0.20;;;;;;;;;;5113651;27;20055;-60
2023/07/27 07:28:01;;;;;;;0.20;0.20;;;;;;;;;;5112228;28;20447;-60
2023/07/27 07:30:27;;;;;;;0.20;0.20;;;;;;;;;;5118389;27;20073;-60
2023/07/27 07:32:53;;;;;;;0.20;0.20;;;;;;;;;;5133146;27;20055;-60
2023/07/27 07:35:20;;;;;;;0.10;0.10;;;;;;;;;;5132142;27;20288;-60
2023/07/27 07:37:47;;;;;;;0.17;0.17;;;;;;;;;;5150424;27;20071;-60
2023/07/27 07:40:16;;;;;;;0.10;0.10;;;;;;;;;;5147923;27;20055;-60
2023/07/27 07:42:43;;;;;;;0.10;0.10;;;;;;;;;;5132607;28;20047;-61
2023/07/27 07:45:09;;;;;;;0.10;0.10;;;;;;;;;;5133715;27;20112;-61
2023/07/27 07:47:35;;;;;;;0.10;0.10;;;;;;;;;;5143341;27;20126;-60
2023/07/27 07:50:03;;;;;;;0.10;0.10;;;;;;;;;;5149679;27;20084;-61
2023/07/27 07:52:30;;;;;;;0.20;0.20;;;;;;;;;;5150882;27;20107;-60
2023/07/27 07:54:56;;;;;;;0.10;0.10;;;;;;;;;;5157516;27;20047;-61
2023/07/27 07:57:22;;;;;;;0.20;0.20;;;;;;;;;;5157361;27;20047;-60
2023/07/27 07:59:49;;;;;;;0.10;0.10;;;;;;;;;;5156326;27;20042;-60
2023/07/27 08:02:15;;;;;;;0.10;0.10;;;;;;;;;;5136112;27;20059;-61
2023/07/27 08:04:41;;;;;;;0.15;0.15;;;;;;;;;;5136340;27;20411;-60
2023/07/27 08:07:07;;;;;;;0.10;0.10;;;;;;;;;;5135878;27;20403;-60
2023/07/27 08:09:34;;;;;;;0.10;0.10;;;;;;;;;;5136352;27;20047;-61
2023/07/27 08:12:00;;;;;;;0.17;0.17;;;;;;;;;;5136542;27;20099;-60
2023/07/27 08:14:26;;;;;;;0.20;0.20;;;;;;;;;;5154161;27;20479;-60
2023/07/27 08:16:52;;;;;;;0.20;0.20;;;;;;;;;;5155460;27;20051;-60
2023/07/27 08:19:19;;;;;;;0.20;0.20;;;;;;;;;;5155846;27;20064;-60
2023/07/27 08:21:45;;;;;;;0.20;0.20;;;;;;;;;;5138902;27;20096;-60
2023/07/27 08:24:11;;;;;;;0.20;0.20;;;;;;;;;;5138162;27;20050;-61
2023/07/27 08:26:38;;;;;;;0.20;0.20;;;;;;;;;;5155487;27;20047;-61
2023/07/27 08:29:04;;;;;;;0.20;0.20;;;;;;;;;;5153187;27;20047;-60
2023/07/27 08:31:30;;;;;;;0.20;0.20;;;;;;;;;;5137114;27;20681;-60
2023/07/27 08:33:56;;;;;;;0.10;0.10;;;;;;;;;;5139398;27;20505;-60
2023/07/27 08:36:23;;;;;;;0.20;0.20;;;;;;;;;;5150003;27;20051;-60
2023/07/27 08:38:49;;;;;;;0.10;0.10;;;;;;;;;;5153653;27;20096;-61
2023/07/27 08:41:15;;;;;;;0.20;0.20;;;;;;;;;;5142050;27;20077;-61
2023/07/27 08:43:42;;;;;;;0.20;0.20;;;;;;;;;;5135686;27;20096;-60
2023/07/27 08:46:08;;;;;;;0.13;0.13;;;;;;;;;;5135176;27;20055;-60
2023/07/27 08:48:35;;;;;;;0.10;0.10;;;;;;;;;;5136426;27;20120;-60
2023/07/27 08:51:01;;;;;;;0.10;0.10;;;;;;;;;;5123952;27;20043;-60
2023/07/27 08:53:27;;;;;;;0.13;0.13;;;;;;;;;;5124425;27;20096;-61
2023/07/27 08:55:53;;;;;;;0.20;0.20;;;;;;;;;;5135820;27;20063;-61
2023/07/27 08:58:20;;;;;;;0.10;0.10;;;;;;;;;;5135617;27;20555;-61
2023/07/27 09:00:46;;;;;;;0.20;0.20;;;;;;;;;;5125926;27;20051;-61
2023/07/27 09:03:12;;;;;;;0.10;0.10;;;;;;;;;;5114444;28;20051;-60
2023/07/27 09:05:40;;;;;;;0.10;0.10;;;;;;;;;;5114680;28;20055;-60
2023/07/27 09:08:07;;;;;;;0.10;0.10;;;;;;;;;;5115128;28;20092;-61
2023/07/27 09:10:34;;;;;;;0.15;0.15;;;;;;;;;;5114070;28;20044;-60
2023/07/27 09:13:00;;;;;;;0.10;0.10;;;;;;;;;;5114117;28;20047;-61
2023/07/27 09:15:27;;;;;;;0.20;0.20;;;;;;;;;;5132258;27;20047;-61
2023/07/27 09:17:53;;;;;;;0.10;0.10;;;;;;;;;;5151351;27;20107;-61
2023/07/27 09:20:20;;;;;;;0.10;0.10;;;;;;;;;;5149981;27;20043;-60
2023/07/27 09:22:48;;;;;;;0.20;0.20;;;;;;;;;;5133162;27;20048;-60
2023/07/27 09:25:15;;;;;;;0.20;0.20;;;;;;;;;;5146593;27;20123;-60
2023/07/27 09:27:43;;;;;;;0.10;0.10;;;;;;;;;;5143452;27;20058;-60
2023/07/27 09:30:10;;;;;;;0.10;0.10;;;;;;;;;;5130953;27;20043;-60
2023/07/27 09:32:36;;;;;;;0.10;0.10;;;;;;;;;;5114421;27;20477;-60
2023/07/27 09:35:03;;;;;;;0.20;0.20;;;;;;;;;;5136908;27;20047;-61
2023/07/27 09:37:29;;;;;;;0.10;0.10;;;;;;;;;;5148570;27;20050;-60
2023/07/27 09:40:12;;;;;;;0.10;0.10;;;;;;;;;;5150813;27;20051;-60
2023/07/27 09:42:41;;;;;;;0.10;0.10;;;;;;;;;;5113619;28;20048;-60
2023/07/27 09:45:08;;;;;;;0.20;0.20;;;;;;;;;;5112852;28;20052;-60
2023/07/27 09:47:35;;;;;;;0.20;0.20;;;;;;;;;;5112878;28;20044;-60
2023/07/27 09:50:01;;;;;;;0.20;0.20;;;;;;;;;;5127472;27;20086;-60
2023/07/27 09:52:28;;;;;;;0.10;0.10;;;;;;;;;;5150015;27;20138;-60
2023/07/27 09:54:55;;;;;;;0.20;0.20;;;;;;;;;;5148703;27;20047;-60
2023/07/27 09:57:22;;;;;;;0.10;0.10;;;;;;;;;;5133634;27;20619;-60
2023/07/27 09:59:48;;;;;;;0.20;0.20;;;;;;;;;;5132536;27;20047;-60
2023/07/27 10:02:15;;;;;;;0.10;0.10;;;;;;;;;;5113123;28;20051;-60
2023/07/27 10:04:51;;;;;;;0.10;0.10;;;;;;;;;;5113180;28;20083;-61
2023/07/27 10:07:18;;;;;;;0.10;0.10;;;;;;;;;;5113231;28;20047;-60
2023/07/27 10:09:45;;;;;;;0.20;0.20;;;;;;;;;;5112891;28;20081;-61
2023/07/27 10:12:24;;;;;;;0.10;0.10;;;;;;;;;;5112731;28;20048;-61
2023/07/27 10:15:10;;;;;;;0.10;0.10;;;;;;;;;;5093871;28;20051;-60
2023/07/27 10:17:40;;;;;;;0.10;0.10;;;;;;;;;;5116594;27;20073;-60
2023/07/27 10:20:27;;;;;;;0.20;0.20;;;;;;;;;;5131054;27;20130;-61
2023/07/27 10:23:13;;;;;;;0.13;0.13;;;;;;;;;;5110187;27;20429;-60
2023/07/27 10:28:35;;;;;;;0.30;0.30;;;;;;;;;;5189923;27;20145;-58
2023/07/27 10:31:23;;;;;;;0.20;0.20;;;;;;;;;;5159673;27;20043;-58
2023/07/27 10:34:08;;;;;;;0.10;0.10;;;;;;;;;;5154221;27;20529;-58
2023/07/27 10:36:57;;;;;;;0.10;0.10;;;;;;;;;;5161350;27;20133;-58
2023/07/27 10:39:24;;;;;;;0.20;0.20;;;;;;;;;;5169099;27;20072;-58
2023/07/27 10:42:09;;;;;;;0.10;0.10;;;;;;;;;;5168280;27;20042;-58
2023/07/27 10:44:41;;;;;;;0.20;0.20;;;;;;;;;;5153852;27;20414;-58
2023/07/27 10:47:08;;;;;;;0.20;0.20;;;;;;;;;;5168838;27;20063;-58
2023/07/27 10:49:37;;;;;;;0.20;0.20;;;;;;;;;;5168963;27;20099;-58
2023/07/27 10:52:03;;;;;;;0.10;0.10;;;;;;;;;;5167849;27;20046;-58
2023/07/27 10:54:29;;;;;;;0.20;0.20;;;;;;;;;;5168310;27;20050;-58
2023/07/27 10:56:55;;;;;;;0.20;0.20;;;;;;;;;;5169033;27;20046;-58
2023/07/27 10:59:21;;;;;;;0.10;0.10;;;;;;;;;;5169247;27;20073;-58
2023/07/27 11:01:47;;;;;;;0.20;0.20;;;;;;;;;;5155417;27;20081;-58
2023/07/27 11:04:13;;;;;;;0.10;0.10;;;;;;;;;;5149004;27;20047;-58
2023/07/27 11:06:43;;;;;;;0.10;0.10;;;;;;;;;;5148747;27;20043;-58
2023/07/27 11:09:09;;;;;;;0.10;0.10;;;;;;;;;;5148598;27;20525;-57
2023/07/27 11:11:34;;;;;;;0.10;0.10;;;;;;;;;;5148015;27;20061;-58
2023/07/27 11:14:04;;;;;;;0.10;0.10;;;;;;;;;;5148518;27;20395;-57
2023/07/27 11:16:30;;;;;;;0.10;0.10;;;;;;;;;;5148096;27;20043;-58
2023/07/27 11:18:55;;;;;;;0.20;0.20;;;;;;;;;;5147842;27;20050;-58
2023/07/27 11:21:21;;;;;;;0.15;0.15;;;;;;;;;;5146424;27;20039;-58
2023/07/27 11:23:47;;;;;;;0.10;0.10;;;;;;;;;;5148325;27;20060;-58
2023/07/27 11:26:12;;;;;;;0.20;0.20;;;;;;;;;;5148106;27;20043;-58
2023/07/27 11:28:39;;;;;;;0.10;0.10;;;;;;;;;;5148465;27;20089;-58
2023/07/27 11:31:06;;;;;;;0.10;0.10;;;;;;;;;;5147441;27;20054;-58
2023/07/27 11:33:32;;;;;;;0.10;0.10;;;;;;;;;;5148408;27;20508;-58
2023/07/27 11:35:57;;;;;;;0.20;0.20;;;;;;;;;;5148362;27;20054;-58
2023/07/27 11:38:23;;;;;;;0.20;0.20;;;;;;;;;;5142410;27;20055;-57
2023/07/27 11:40:49;;;;;;;0.10;0.10;;;;;;;;;;5133170;28;20100;-58
2023/07/27 11:43:14;;;;;;;0.20;0.20;;;;;;;;;;5133670;28;20047;-58
2023/07/27 11:45:40;;;;;;;0.20;0.20;;;;;;;;;;5133962;28;20137;-58
2023/07/27 11:48:06;;;;;;;0.20;0.20;;;;;;;;;;5133988;28;20047;-58
2023/07/27 11:50:34;;;;;;;0.20;0.20;;;;;;;;;;5133719;28;20053;-58
2023/07/27 11:53:02;;;;;;;0.10;0.10;;;;;;;;;;5133472;28;20482;-58
2023/07/27 11:55:32;;;;;;;0.20;0.20;;;;;;;;;;5132391;28;20043;-58
2023/07/27 11:57:58;;;;;;;0.20;0.20;;;;;;;;;;5133771;28;20051;-58
2023/07/27 12:00:23;;;;;;;0.20;0.20;;;;;;;;;;5133306;27;20093;-58
2023/07/27 12:02:50;;;;;;;0.15;0.15;;;;;;;;;;5134044;28;20073;-58
2023/07/27 12:05:17;;;;;;;0.20;0.20;;;;;;;;;;5133945;28;20074;-58
2023/07/27 12:07:43;;;;;;;0.10;0.10;;;;;;;;;;5133990;28;20071;-57
2023/07/27 12:10:11;;;;;;;0.10;0.10;;;;;;;;;;5133007;28;20506;-58
2023/07/27 12:12:59;;;;;;;0.10;0.10;;;;;;;;;;5133618;27;20055;-58
2023/07/27 12:15:29;;;;;;;0.20;0.20;;;;;;;;;;5118670;28;20043;-58
2023/07/27 12:17:56;;;;;;;0.10;0.10;;;;;;;;;;5133526;28;20043;-58
2023/07/27 12:20:22;;;;;;;0.20;0.20;;;;;;;;;;5132676;27;20146;-58
2023/07/27 12:22:50;;;;;;;0.20;0.20;;;;;;;;;;5133404;27;20044;-58
2023/07/27 12:25:16;;;;;;;0.10;0.10;;;;;;;;;;5133710;28;20051;-58
2023/07/27 12:27:44;;;;;;;0.10;0.10;;;;;;;;;;5132845;28;20100;-58
2023/07/27 12:30:11;;;;;;;0.20;0.20;;;;;;;;;;5133250;27;20047;-58
2023/07/27 12:32:39;;;;;;;0.20;0.20;;;;;;;;;;5133008;28;20441;-58
2023/07/27 12:35:05;;;;;;;0.20;0.20;;;;;;;;;;5133488;28;20050;-58
2023/07/27 12:37:34;;;;;;;0.10;0.10;;;;;;;;;;5133394;27;20089;-58
2023/07/27 12:40:03;;;;;;;;;;;;;;;;;;5132689;27;20051;-58
2023/07/27 12:42:31;;;;;;;0.20;0.20;;;;;;;;;;5132340;28;19968;-58
2023/07/27 12:44:59;;;;;;;0.20;0.20;;;;;;;;;;5132446;28;20074;-57
2023/07/27 12:47:24;;;;;;;0.10;0.10;;;;;;;;;;5132860;28;20483;-57
2023/07/27 12:49:50;;;;;;;0.15;0.15;;;;;;;;;;5132181;27;20051;-58
2023/07/27 12:52:15;;;;;;;0.10;0.10;;;;;;;;;;5133051;28;20079;-58
2023/07/27 12:54:41;;;;;;;0.20;0.20;;;;;;;;;;5132577;28;20062;-58
2023/07/27 12:57:07;;;;;;;0.20;0.20;;;;;;;;;;5131703;28;20055;-57
2023/07/27 12:59:32;;;;;;;0.20;0.20;;;;;;;;;;5132684;27;20054;-57
2023/07/27 13:01:58;;;;;;;0.10;0.10;;;;;;;;;;5131601;28;20051;-57
2023/07/27 13:04:23;;;;;;;0.20;0.20;;;;;;;;;;5132854;28;20047;-57
2023/07/27 13:06:49;;;;;;;0.20;0.20;;;;;;;;;;5132687;28;20111;-57
2023/07/27 13:09:14;;;;;;;0.10;0.10;;;;;;;;;;5132814;28;20043;-57
2023/07/27 13:11:40;;;;;;;0.10;0.10;;;;;;;;;;5132473;28;20479;-58
2023/07/27 13:14:06;;;;;;;0.10;0.10;;;;;;;;;;5132831;28;20067;-57
2023/07/27 13:16:33;;;;;;;0.20;0.20;;;;;;;;;;5132531;28;20453;-57
2023/07/27 13:18:59;;;;;;;0.20;0.20;;;;;;;;;;5132685;28;20149;-57
2023/07/27 13:21:24;;;;;;;0.20;0.20;;;;;;;;;;5123011;27;20047;-58
2023/07/27 13:23:49;;;;;;;0.20;0.20;;;;;;;;;;5131842;28;20108;-58
2023/07/27 13:26:15;;;;;;;0.20;0.20;;;;;;;;;;5132411;28;20399;-57
2023/07/27 13:28:40;;;;;;;0.20;0.20;;;;;;;;;;5132602;28;20438;-57
2023/07/27 13:31:06;;;;;;;0.20;0.20;;;;;;;;;;5131921;28;20050;-57
2023/07/27 13:33:31;;;;;;;0.10;0.10;;;;;;;;;;5131437;28;20054;-58
2023/07/27 13:35:57;;;;;;;0.20;0.20;;;;;;;;;;5132193;28;20054;-57
2023/07/27 13:38:23;;;;;;;0.20;0.20;;;;;;;;;;5132424;28;20163;-57
2023/07/27 13:40:49;;;;;;;0.10;0.10;;;;;;;;;;5131047;28;20043;-57
2023/07/27 13:43:14;;;;;;;0.20;0.20;;;;;;;;;;5132084;27;20058;-57
2023/07/27 13:45:40;;;;;;;0.20;0.20;;;;;;;;;;5131672;28;20055;-57
2023/07/27 13:48:05;;;;;;;0.20;0.20;;;;;;;;;;5131078;28;20399;-57
2023/07/27 13:50:35;;;;;;;0.15;0.15;;;;;;;;;;5131520;28;20144;-57
2023/07/27 13:53:01;;;;;;;0.10;0.10;;;;;;;;;;5132018;27;20043;-57
2023/07/27 13:55:26;;;;;;;0.10;0.10;;;;;;;;;;5131676;28;20047;-58
2023/07/27 13:57:52;;;;;;;0.20;0.20;;;;;;;;;;5130371;28;20100;-57
2023/07/27 14:00:17;;;;;;;0.10;0.10;;;;;;;;;;5130578;27;20051;-56
2023/07/27 14:02:43;;;;;;;0.20;0.20;;;;;;;;;;5131042;27;20055;-57
2023/07/27 14:05:09;;;;;;;0.10;0.10;;;;;;;;;;5131574;28;20051;-58
2023/07/27 14:07:34;;;;;;;0.17;0.17;;;;;;;;;;5130679;28;20346;-58
2023/07/27 14:10:00;;;;;;;0.17;0.17;;;;;;;;;;5131116;27;20051;-57
2023/07/27 14:12:25;;;;;;;0.20;0.20;;;;;;;;;;5131194;28;20058;-56
2023/07/27 14:14:51;;;;;;;0.20;0.20;;;;;;;;;;5131364;28;20074;-57
2023/07/27 14:17:16;;;;;;;0.20;0.20;;;;;;;;;;5131123;28;20050;-57
2023/07/27 14:19:43;;;;;;;0.10;0.10;;;;;;;;;;5131051;28;20540;-57
2023/07/27 14:22:09;;;;;;;0.20;0.20;;;;;;;;;;5146078;27;20076;-57
2023/07/27 14:24:35;;;;;;;0.20;0.20;;;;;;;;;;5139634;27;20051;-57
2023/07/27 14:27:01;;;;;;;0.20;0.20;;;;;;;;;;5130580;28;20470;-57
2023/07/27 14:29:26;;;;;;;0.38;0.30;;;;;;;;;;5131089;28;20052;-56
2023/07/27 14:31:52;;;;;;;0.10;0.10;;;;;;;;;;5130080;28;20054;-57
2023/07/27 14:34:18;;;;;;;0.10;0.10;;;;;;;;;;5130627;28;20055;-57
2023/07/27 14:36:43;;;;;;;0.20;0.20;;;;;;;;;;5130304;28;20278;-58
2023/07/27 14:39:09;;;;;;;0.20;0.20;;;;;;;;;;5130652;28;20112;-57
2023/07/27 14:41:37;;;;;;;0.17;0.17;;;;;;;;;;5129480;28;20054;-57
2023/07/27 14:44:03;;;;;;;0.10;0.10;;;;;;;;;;5127189;28;20474;-57